Saturday, August 29, 2015, 10:37 AM EDT
Back to Local

KLEB, Lebanon Municipal Airport

Location: Lebanon, NH, United States Lat: 43.633
Local Time: 10:37 AM EDT (14:37 GMT) Lon: -72.3
Time Zone: US/Eastern Elev: 597 ft

Show me the last for .
Show Coded

Time T Td Feel RH Dir Speed Gust Alt SLP Vis Weather Sky Remarks
2015-08-29 10:05 59 56 - 89 - Calm - 30.20 - 10 SCT002 None
2015-08-29 09:53 58 55 - 90 300° 3 - 30.20 30.19 2 BR OVC001 None
2015-08-29 09:27 57 55 - 93 - Calm - 30.20 - 2 BR OVC001 None
2015-08-29 09:20 57 55 - 93 - Calm - 30.20 - 1 BR OVC001 None
2015-08-29 09:00 55 55 - 100 - Calm - 30.20 - 0 FG VV001 None
2015-08-29 08:53 56 55 - 96 140° 3 - 30.20 30.19 0 FG VV001 None
2015-08-29 07:53 56 54 - 93 - Calm - 30.21 30.20 0 FG VV001 6-hr Min Temp (8am): 54.0°F
6-hr Max Temp (8am): 55.9°F
2015-08-29 06:53 55 54 - 96 - Calm - 30.21 30.19 0 FG VV001 None
2015-08-29 06:29 55 53 - 93 170° 3 - 30.19 - 0 FG VV001 None
2015-08-29 06:21 54 53 - 96 190° 3 - 30.19 - 0 FG VV001 None
2015-08-29 05:53 55 53 - 93 180° 3 - 30.19 30.16 0 FG VV001 None
2015-08-29 04:53 55 54 - 96 - Calm - 30.18 30.16 0 FG VV001 None
2015-08-29 04:46 55 54 - 96 - Calm - 30.18 - 0 FG VV001 None
2015-08-29 04:32 55 54 - 96 - Calm - 30.18 - 0 FG VV001 None
2015-08-29 04:19 55 54 - 96 - Calm - 30.17 - 1 BR OVC001 None
2015-08-29 04:11 55 53 - 93 - Calm - 30.17 - 0 BR VV001 None
2015-08-29 04:00 55 54 - 93 - Calm - 30.17 - 0 FG VV001 None
2015-08-29 03:53 55 53 - 93 - Calm - 30.17 30.15 0 FG VV001 None
2015-08-29 03:37 54 53 - 96 - Calm - 30.17 - 0 FG VV001 None
2015-08-29 03:02 55 53 - 93 - Calm - 30.18 - 0 FG VV001 None
2015-08-29 02:53 54 52 - 92 - Calm - 30.18 30.16 1 BR VV001 None
2015-08-29 02:40 55 54 - 96 - Calm - 30.17 - 0 FG VV001 None
2015-08-29 02:28 55 53 - 93 - Calm - 30.18 - 1 BR VV001 None
2015-08-29 02:14 55 53 - 93 - Calm - 30.18 - 0 FG VV001 None
2015-08-29 02:04 54 52 - 92 - Calm - 30.17 - 0 BR VV001 None
2015-08-29 01:53 55 52 - 89 - Calm - 30.17 30.15 8 OVC001 6-hr Min Temp (2am): 53.1°F
6-hr Max Temp (2am): 62.1°F
2015-08-29 01:18 54 51 - 89 - Calm - 30.18 - 8 BKN001 None
2015-08-29 01:09 54 51 - 89 - Calm - 30.18 - 8 SCT001 None
2015-08-29 00:53 54 51 - 89 - Calm - 30.17 30.15 9 CLR 24-hr Min Temp (1am): 48.9°F
24-hr Max Temp (1am): 79.0°F
2015-08-28 23:53 55 54 - 93 - Calm - 30.18 - 7 CLR None
2015-08-28 22:53 56 54 - 93 - Calm - 30.18 30.16 9 CLR None
2015-08-28 21:53 57 55 - 93 - Calm - 30.17 - 10 CLR None
2015-08-28 20:53 60 56 - 86 - Calm - 30.16 30.15 10 CLR None
2015-08-28 19:53 62 57 - 83 170° 3 - 30.14 30.12 10 CLR 6-hr Min Temp (8pm): 62.1°F
6-hr Max Temp (8pm): 79.0°F
2015-08-28 18:53 69 60 - 73 - Calm - 30.12 30.10 10 CLR None
2015-08-28 17:53 77 54 78 44 300° 8 - 30.11 30.09 10 CLR None
2015-08-28 16:53 77 53 78 43 270° 6 - 30.11 30.09 10 CLR None
2015-08-28 15:53 76 53 77 45 360° 5 - 30.12 30.10 10 FEW050 None
2015-08-28 14:53 77 52 78 41 Variable 5 - 30.13 30.11 10 FEW050 None
2015-08-28 13:53 78 54 79 43 Variable 6 - 30.14 30.12 10 FEW048 6-hr Min Temp (2pm): 54.0°F
6-hr Max Temp (2pm): 78.1°F
2015-08-28 12:53 76 53 77 45 Variable 5 - 30.16 30.14 10 CLR None
2015-08-28 11:53 72 54 76 53 270° 8 - 30.17 30.16 10 FEW035 None
2015-08-28 10:53 68 55 - 64 - Calm - 30.18 - 10 CLR None

Support USWX by starting your Amazon purchase here.